Time;durP1;ratioP1;P1;durP2;ratioP2;P2;SDS_P1;SDS_P2;PMS_P1;PMS_P2;Temp;Humidity;BMP_temperature;BMP_pressure;BME280_temperature;BME280_humidity;BME280_pressure;Samples;Min_cycle;Max_cycle;Signal;HPM_P1;HPM_P2
2022/06/23 00:02:27;;;;;;;10.33;8.40;;;20.40;99.90;;;;;;5060432;28;20410;-83
2022/06/23 00:05:18;;;;;;;9.83;8.70;;;20.50;99.90;;;;;;5061794;28;20459;-84
2022/06/23 00:08:05;;;;;;;9.93;9.03;;;20.40;99.90;;;;;;5062743;28;20389;-83
2022/06/23 00:11:00;;;;;;;10.00;8.40;;;20.40;99.90;;;;;;5062552;28;20506;-83
2022/06/23 00:13:45;;;;;;;10.77;9.83;;;20.30;99.90;;;;;;5061643;28;20425;-83
2022/06/23 00:16:29;;;;;;;12.83;10.00;;;20.30;99.90;;;;;;5062172;28;20928;-83
2022/06/23 00:19:15;;;;;;;10.10;9.37;;;20.30;99.90;;;;;;5062657;28;20476;-83
2022/06/23 00:22:01;;;;;;;9.30;8.43;;;20.10;99.90;;;;;;5062248;28;20747;-83
2022/06/23 00:24:48;;;;;;;9.80;8.43;;;20.10;99.90;;;;;;5047362;28;20386;-83
2022/06/23 00:27:38;;;;;;;11.17;9.60;;;20.00;99.90;;;;;;5062171;28;20386;-84
2022/06/23 00:30:28;;;;;;;9.83;8.83;;;19.90;99.90;;;;;;5062646;28;20580;-83
2022/06/23 00:33:23;;;;;;;15.53;10.00;;;19.80;99.90;;;;;;5063460;28;20414;-83
2022/06/23 00:36:30;;;;;;;10.90;9.80;;;19.70;99.90;;;;;;5066130;28;20396;-82
2022/06/23 00:39:34;;;;;;;11.30;10.07;;;19.70;99.90;;;;;;5074861;28;20429;-81
2022/06/23 00:42:24;;;;;;;10.13;9.20;;;19.80;99.90;;;;;;5070802;28;20396;-81
2022/06/23 00:45:36;;;;;;;10.97;9.60;;;19.90;99.90;;;;;;5074312;28;20387;-83
2022/06/23 00:48:35;;;;;;;10.83;9.60;;;20.10;99.90;;;;;;5073878;28;20469;-81
2022/06/23 00:51:27;;;;;;;10.90;9.60;;;19.80;99.90;;;;;;5070730;28;20405;-83
2022/06/23 00:54:22;;;;;;;11.90;10.77;;;19.50;99.90;;;;;;5063611;28;20730;-83
2022/06/23 00:57:15;;;;;;;10.50;9.50;;;19.50;99.90;;;;;;5061696;28;20500;-83
2022/06/23 01:00:09;;;;;;;17.40;11.00;;;19.50;99.90;;;;;;5061276;28;20381;-83
2022/06/23 01:03:01;;;;;;;11.60;10.50;;;19.50;99.90;;;;;;5059775;28;20397;-83
2022/06/23 01:05:51;;;;;;;11.20;10.20;;;19.50;99.90;;;;;;5061649;28;20384;-83
2022/06/23 01:08:51;;;;;;;11.13;9.90;;;19.50;99.90;;;;;;5060624;28;20431;-83
2022/06/23 01:11:42;;;;;;;9.77;8.83;;;19.50;99.90;;;;;;5061594;28;20440;-83
2022/06/23 01:14:37;;;;;;;17.23;10.63;;;19.40;99.90;;;;;;5061225;28;20386;-83
2022/06/23 01:17:27;;;;;;;14.10;11.37;;;19.20;99.90;;;;;;5062069;28;20374;-84
2022/06/23 01:20:21;;;;;;;11.67;10.50;;;19.10;99.90;;;;;;5063520;28;20482;-84
2022/06/23 01:23:30;;;;;;;12.17;11.10;;;19.10;99.90;;;;;;5072011;28;20405;-80
2022/06/23 01:26:48;;;;;;;11.33;10.13;;;19.30;99.90;;;;;;5076174;28;20421;-83
2022/06/23 01:29:46;;;;;;;10.57;9.57;;;19.20;99.90;;;;;;5074752;28;20453;-83
2022/06/23 01:32:41;;;;;;;11.80;10.67;;;19.20;99.90;;;;;;5074268;28;20409;-83
2022/06/23 01:35:46;;;;;;;11.77;10.70;;;19.10;99.90;;;;;;5060558;28;20910;-83
2022/06/23 01:38:46;;;;;;;10.83;9.70;;;19.00;99.90;;;;;;5061804;28;20431;-83
2022/06/23 01:41:48;;;;;;;13.00;11.70;;;19.00;99.90;;;;;;5064110;28;20390;-83
2022/06/23 01:44:51;;;;;;;11.40;10.30;;;19.00;99.90;;;;;;5064351;28;20381;-82
2022/06/23 01:48:05;;;;;;;11.60;10.40;;;18.90;99.90;;;;;;5064503;28;20462;-83
2022/06/23 01:50:53;;;;;;;12.37;11.17;;;19.00;99.90;;;;;;5065068;28;20510;-83
2022/06/23 01:53:38;;;;;;;11.30;10.37;;;19.10;99.90;;;;;;5065834;28;20431;-83
2022/06/23 01:56:36;;;;;;;12.90;11.53;;;19.00;99.90;;;;;;5069739;28;20448;-83
2022/06/23 01:59:47;;;;;;;14.70;10.17;;;19.10;99.90;;;;;;5074864;28;20390;-82
2022/06/23 02:02:47;;;;;;;10.80;9.80;;;18.90;99.90;;;;;;5064973;28;20470;-83
2022/06/23 02:05:47;;;;;;;12.27;11.03;;;18.90;99.90;;;;;;5065155;28;20493;-83
2022/06/23 02:08:54;;;;;;;14.37;12.23;;;19.10;99.90;;;;;;5065031;28;20394;-83
2022/06/23 02:11:50;;;;;;;11.27;10.17;;;19.10;99.90;;;;;;5063828;28;20433;-83
2022/06/23 02:14:56;;;;;;;11.73;10.63;;;18.90;99.90;;;;;;5064328;28;20382;-83
2022/06/23 02:18:06;;;;;;;11.23;9.97;;;18.80;99.90;;;;;;5063435;28;20385;-83
2022/06/23 02:21:19;;;;;;;13.93;10.73;;;18.70;99.90;;;;;;5064354;28;20490;-83
2022/06/23 02:24:16;;;;;;;11.30;10.20;;;18.80;99.90;;;;;;5063946;28;20428;-83
2022/06/23 02:27:22;;;;;;;13.70;12.30;;;18.80;99.90;;;;;;5063113;28;20436;-83
2022/06/23 02:30:28;;;;;;;13.77;11.47;;;18.70;99.90;;;;;;5063552;28;20446;-83
2022/06/23 02:33:34;;;;;;;13.70;12.30;;;18.80;99.90;;;;;;5064105;28;20475;-83
2022/06/23 02:36:33;;;;;;;12.83;11.73;;;18.70;99.90;;;;;;5064171;28;20402;-83
2022/06/23 02:39:29;;;;;;;11.30;10.03;;;18.90;99.90;;;;;;5064383;28;20437;-83
2022/06/23 02:42:36;;;;;;;12.30;11.07;;;18.60;99.90;;;;;;5063460;28;20387;-83
2022/06/23 02:45:55;;;;;;;12.07;10.77;;;18.60;99.90;;;;;;5064149;28;20405;-83
2022/06/23 02:49:10;;;;;;;13.47;12.17;;;18.80;99.90;;;;;;5063905;28;20418;-83
2022/06/23 02:52:20;;;;;;;12.70;11.40;;;18.90;99.90;;;;;;5064268;28;20481;-83
2022/06/23 02:55:28;;;;;;;11.90;10.90;;;18.90;99.90;;;;;;5064223;28;20365;-82
2022/06/23 02:58:22;;;;;;;11.70;10.60;;;19.00;99.90;;;;;;5064294;28;20441;-83
2022/06/23 03:01:15;;;;;;;12.73;11.40;;;18.80;99.90;;;;;;5076311;28;20377;-81
2022/06/23 03:04:10;;;;;;;15.23;13.17;;;18.80;99.90;;;;;;5078288;28;20397;-81
2022/06/23 03:07:06;;;;;;;13.07;11.70;;;18.70;99.90;;;;;;5076061;28;20410;-84
2022/06/23 03:10:09;;;;;;;12.88;11.57;;;18.80;99.90;;;;;;5063639;28;20470;-83
2022/06/23 03:13:09;;;;;;;13.90;12.60;;;18.70;99.90;;;;;;5064140;28;20150;-83
2022/06/23 03:16:19;;;;;;;17.70;11.70;;;18.40;99.90;;;;;;5063578;28;20741;-84
2022/06/23 03:19:14;;;;;;;18.60;12.90;;;18.50;99.90;;;;;;5063933;28;20382;-84
2022/06/23 03:22:08;;;;;;;12.87;10.97;;;18.40;99.90;;;;;;5064116;28;20390;-83
2022/06/23 03:25:14;;;;;;;13.50;10.70;;;18.30;99.90;;;;;;5063752;28;20402;-83
2022/06/23 03:28:19;;;;;;;14.03;11.53;;;18.20;99.90;;;;;;5063296;28;20390;-84
2022/06/23 03:31:41;;;;;;;12.20;11.00;;;18.20;99.90;;;;;;5067041;28;20482;-83
2022/06/23 03:34:38;;;;;;;12.63;11.23;;;18.10;99.90;;;;;;5062379;28;20386;-83
2022/06/23 03:37:42;;;;;;;12.33;10.67;;;18.10;99.90;;;;;;5064042;28;20436;-83
2022/06/23 03:43:54;;;;;;;12.93;11.93;;;17.90;99.90;;;;;;5062122;28;20409;-82
2022/06/23 03:46:54;;;;;;;14.57;13.27;;;17.90;99.90;;;;;;5049260;28;20415;-83
2022/06/23 03:49:50;;;;;;;13.63;11.93;;;18.00;99.90;;;;;;5043761;28;20441;-82
2022/06/23 03:52:45;;;;;;;19.70;11.83;;;17.90;99.90;;;;;;5041605;28;20414;-83
2022/06/23 03:55:39;;;;;;;14.67;13.27;;;17.80;99.90;;;;;;5042438;28;20477;-83
2022/06/23 03:58:37;;;;;;;13.60;12.20;;;17.90;99.90;;;;;;5041144;28;20455;-83
2022/06/23 04:01:30;;;;;;;15.00;13.13;;;18.00;99.90;;;;;;5041898;28;20449;-83
2022/06/23 04:04:24;;;;;;;14.63;13.23;;;18.00;99.90;;;;;;5026045;28;20445;-83
2022/06/23 04:07:34;;;;;;;13.67;12.27;;;18.10;99.90;;;;;;5043017;28;20452;-83
2022/06/23 04:10:28;;;;;;;15.33;13.47;;;18.20;99.90;;;;;;5043354;28;20526;-83
2022/06/23 04:13:22;;;;;;;15.63;14.03;;;18.40;99.90;;;;;;5026412;28;20799;-83
2022/06/23 04:16:10;;;;;;;15.00;13.50;;;18.40;99.90;;;;;;5041815;28;20766;-83
2022/06/23 04:18:55;;;;;;;15.17;13.73;;;18.20;99.90;;;;;;5041803;28;20730;-83
2022/06/23 04:21:46;;;;;;;16.60;15.00;;;18.20;99.90;;;;;;5026569;28;20411;-82
2022/06/23 04:24:32;;;;;;;17.37;14.60;;;18.10;99.90;;;;;;5041167;28;20407;-82
2022/06/23 04:27:27;;;;;;;14.37;12.23;;;18.40;99.90;;;;;;5041909;28;20391;-83
2022/06/23 04:30:33;;;;;;;16.37;14.67;;;18.50;99.90;;;;;;5042229;28;20489;-83
2022/06/23 04:33:22;;;;;;;16.63;14.87;;;18.50;99.90;;;;;;5041175;28;20398;-84
2022/06/23 04:36:17;;;;;;;16.93;13.60;;;18.50;99.90;;;;;;5041624;28;20425;-84
2022/06/23 04:39:16;;;;;;;16.20;14.60;;;18.80;99.90;;;;;;5041585;28;20386;-83
2022/06/23 04:42:17;;;;;;;21.50;15.17;;;19.00;99.90;;;;;;5041314;28;20391;-84
2022/06/23 04:45:23;;;;;;;15.07;13.57;;;18.80;99.90;;;;;;5041293;28;20414;-83
2022/06/23 04:48:24;;;;;;;17.97;14.10;;;19.00;99.90;;;;;;5039983;28;20423;-83
2022/06/23 04:51:26;;;;;;;22.23;15.03;;;19.40;99.90;;;;;;5040912;28;20806;-83
2022/06/23 04:54:19;;;;;;;17.47;15.67;;;19.20;99.90;;;;;;5027148;28;20414;-83
2022/06/23 04:57:15;;;;;;;18.37;16.47;;;19.30;99.90;;;;;;5048113;28;20878;-83
2022/06/23 05:00:03;;;;;;;19.27;16.10;;;19.50;99.90;;;;;;5060767;28;20875;-84
2022/06/23 05:02:52;;;;;;;17.67;15.87;;;19.20;99.90;;;;;;5060838;28;20398;-82
2022/06/23 05:05:38;;;;;;;18.77;16.93;;;19.30;99.90;;;;;;5045456;28;20468;-83
2022/06/23 05:08:26;;;;;;;16.97;15.27;;;19.60;99.90;;;;;;5060789;28;20401;-83
2022/06/23 05:11:47;;;;;;;18.73;16.93;;;19.70;99.90;;;;;;5059911;28;20492;-83
2022/06/23 05:14:47;;;;;;;19.20;17.30;;;19.80;99.90;;;;;;5059913;28;20479;-83
2022/06/23 05:17:35;;;;;;;19.47;16.67;;;20.10;99.90;;;;;;5048301;28;20386;-84
2022/06/23 05:20:30;;;;;;;17.63;15.77;;;20.30;99.90;;;;;;5063490;28;20445;-83
2022/06/23 05:23:21;;;;;;;16.50;14.87;;;20.00;99.90;;;;;;5060428;28;20941;-83
2022/06/23 05:26:14;;;;;;;21.10;16.70;;;20.10;99.90;;;;;;5061065;28;20934;-84
2022/06/23 05:29:07;;;;;;;19.40;16.90;;;19.90;99.90;;;;;;5062334;28;20409;-84
2022/06/23 05:31:56;;;;;;;24.30;18.93;;;20.00;99.90;;;;;;5073046;28;20460;-83
2022/06/23 05:34:51;;;;;;;19.13;16.90;;;20.00;99.90;;;;;;5051209;28;20414;-82
2022/06/23 05:37:46;;;;;;;22.47;18.77;;;20.10;99.90;;;;;;5037507;28;20453;-84
2022/06/23 05:40:51;;;;;;;19.10;17.13;;;20.10;99.90;;;;;;5049654;28;20436;-82
2022/06/23 05:43:40;;;;;;;21.27;18.40;;;20.10;99.90;;;;;;5062818;28;20467;-83
2022/06/23 05:46:28;;;;;;;19.60;17.50;;;20.10;99.90;;;;;;5070107;28;20505;-83
2022/06/23 05:49:26;;;;;;;22.77;20.33;;;20.40;99.90;;;;;;5059484;28;20530;-83
2022/06/23 05:52:17;;;;;;;22.40;20.17;;;20.20;99.90;;;;;;5054737;28;20429;-83
2022/06/23 05:55:13;;;;;;;18.77;16.83;;;20.40;99.90;;;;;;5063768;28;20474;-84
2022/06/23 05:58:05;;;;;;;20.80;18.00;;;20.50;99.90;;;;;;5065271;28;20473;-83
2022/06/23 06:01:08;;;;;;;20.40;18.30;;;20.90;99.90;;;;;;5060738;28;20853;-83
2022/06/23 06:04:00;;;;;;;18.33;16.47;;;21.00;99.90;;;;;;5055559;28;20452;-83
2022/06/23 06:06:45;;;;;;;19.90;18.00;;;20.60;99.90;;;;;;5068748;28;20442;-82
2022/06/23 06:09:36;;;;;;;18.30;16.40;;;20.60;99.90;;;;;;5079223;28;20471;-80
2022/06/23 06:12:26;;;;;;;22.57;18.43;;;20.60;99.90;;;;;;5058306;28;20444;-83
2022/06/23 06:15:23;;;;;;;20.70;18.60;;;20.90;99.90;;;;;;5052132;28;20786;-83
2022/06/23 06:18:30;;;;;;;19.37;17.37;;;20.90;99.90;;;;;;5063356;28;20811;-84
2022/06/23 06:21:17;;;;;;;21.13;18.83;;;20.90;99.90;;;;;;5021799;28;20463;-83
2022/06/23 06:24:19;;;;;;;22.60;17.67;;;20.80;99.90;;;;;;5063872;28;20424;-83
2022/06/23 06:27:11;;;;;;;23.33;17.73;;;21.00;99.90;;;;;;5014449;28;20472;-83
2022/06/23 06:29:56;;;;;;;18.50;16.80;;;21.00;99.90;;;;;;5045096;28;20472;-81
2022/06/23 06:32:42;;;;;;;22.37;17.00;;;21.20;99.90;;;;;;5043087;28;20445;-84
2022/06/23 06:35:36;;;;;;;26.33;17.93;;;21.20;99.90;;;;;;5055553;28;20438;-84
2022/06/23 06:38:22;;;;;;;28.13;15.60;;;21.40;99.90;;;;;;5045203;28;20424;-84
2022/06/23 06:41:06;;;;;;;17.77;16.13;;;21.60;99.90;;;;;;5045246;28;20535;-84
2022/06/23 06:43:52;;;;;;;17.93;16.20;;;21.70;99.90;;;;;;5043873;28;20430;-84
2022/06/23 06:46:39;;;;;;;23.23;17.07;;;21.70;99.90;;;;;;5046864;28;20417;-84
2022/06/23 06:49:28;;;;;;;25.10;17.53;;;21.80;99.90;;;;;;5058039;28;20481;-84
2022/06/23 06:52:13;;;;;;;25.73;17.70;;;21.80;99.90;;;;;;5047508;28;20428;-84
2022/06/23 06:55:04;;;;;;;21.50;18.23;;;21.80;99.90;;;;;;5052893;28;20515;-83
2022/06/23 06:57:55;;;;;;;18.60;16.80;;;21.70;99.90;;;;;;5053577;28;20564;-84
2022/06/23 07:00:49;;;;;;;18.13;16.20;;;21.80;99.90;;;;;;5057044;28;20539;-82
2022/06/23 07:03:35;;;;;;;19.67;17.57;;;21.90;99.90;;;;;;5047393;28;21011;-84
2022/06/23 07:06:37;;;;;;;19.20;16.60;;;22.10;99.90;;;;;;5056427;28;20437;-83
2022/06/23 07:09:31;;;;;;;18.67;16.77;;;22.00;99.90;;;;;;5050218;28;20462;-84
2022/06/23 07:12:21;;;;;;;17.60;13.73;;;22.30;99.90;;;;;;5054318;28;20548;-84
2022/06/23 07:15:41;;;;;;;17.40;13.70;;;22.10;99.90;;;;;;5050386;28;20469;-84
2022/06/23 07:19:00;;;;;;;23.80;14.10;;;22.10;99.90;;;;;;5053575;28;20429;-84
2022/06/23 07:21:55;;;;;;;16.00;14.50;;;22.20;99.90;;;;;;5055858;28;20441;-85
2022/06/23 07:24:49;;;;;;;15.23;12.80;;;22.40;99.90;;;;;;5054730;28;20491;-84
2022/06/23 07:27:39;;;;;;;14.03;12.53;;;22.50;99.90;;;;;;5032224;28;20426;-84
2022/06/23 07:30:48;;;;;;;11.40;10.10;;;22.60;99.90;;;;;;5042049;28;20457;-84
2022/06/23 07:33:47;;;;;;;15.93;10.27;;;22.80;99.90;;;;;;5055422;28;20435;-83
2022/06/23 07:36:48;;;;;;;13.90;10.87;;;22.80;99.90;;;;;;5037168;28;20479;-82
2022/06/23 07:39:37;;;;;;;10.80;9.10;;;23.00;99.90;;;;;;5045547;28;20765;-83
2022/06/23 07:42:48;;;;;;;12.17;10.97;;;22.70;99.90;;;;;;5054501;28;20465;-82
2022/06/23 07:45:47;;;;;;;14.43;10.57;;;22.90;99.90;;;;;;5046275;28;20449;-80
2022/06/23 07:48:35;;;;;;;10.17;9.17;;;23.10;99.90;;;;;;5017874;28;20432;-79
2022/06/23 07:51:23;;;;;;;14.13;9.77;;;22.90;99.90;;;;;;5050086;28;20660;-81
2022/06/23 07:54:15;;;;;;;16.10;10.60;;;23.20;99.90;;;;;;5049342;28;20426;-81
2022/06/23 07:57:19;;;;;;;10.27;9.27;;;23.20;99.90;;;;;;5046796;28;21054;-79
2022/06/23 08:00:09;;;;;;;12.97;10.17;;;23.30;99.90;;;;;;5008636;28;20601;-80
2022/06/23 08:03:04;;;;;;;10.50;9.50;;;23.50;99.90;;;;;;5013823;28;20459;-78
2022/06/23 08:05:55;;;;;;;11.13;9.93;;;23.60;99.90;;;;;;4998719;28;20635;-81
2022/06/23 08:08:43;;;;;;;12.30;9.77;;;23.70;99.90;;;;;;5007393;28;20466;-80
2022/06/23 08:14:32;;;;;;;10.97;9.20;;;23.80;99.90;;;;;;5002625;28;20427;-81
2022/06/23 08:17:19;;;;;;;10.93;9.87;;;23.80;99.90;;;;;;5005939;28;20478;-80
2022/06/23 08:20:09;;;;;;;9.47;8.67;;;23.90;99.90;;;;;;5007533;28;21094;-79
2022/06/23 08:22:55;;;;;;;13.23;8.33;;;24.10;99.90;;;;;;5009604;28;20431;-80
2022/06/23 08:25:42;;;;;;;12.67;9.10;;;24.30;99.90;;;;;;5005436;28;20523;-80
2022/06/23 08:28:29;;;;;;;12.63;8.60;;;24.20;99.90;;;;;;4989852;28;21064;-80
2022/06/23 08:31:15;;;;;;;8.40;7.70;;;24.40;99.90;;;;;;5026033;28;20473;-82
2022/06/23 08:34:02;;;;;;;10.20;7.30;;;24.40;99.90;;;;;;5032085;28;20429;-80
2022/06/23 08:36:52;;;;;;;11.17;8.47;;;24.40;99.90;;;;;;5045103;28;22343;-81
2022/06/23 08:39:59;;;;;;;10.43;7.90;;;24.50;99.90;;;;;;5051356;28;20421;-81
2022/06/23 08:42:58;;;;;;;8.87;7.43;;;24.70;99.90;;;;;;5049825;28;20426;-82
2022/06/23 08:45:53;;;;;;;12.17;7.53;;;24.60;99.90;;;;;;5052432;28;20425;-80
2022/06/23 08:48:51;;;;;;;8.33;7.60;;;24.80;99.90;;;;;;5041116;28;20450;-81
2022/06/23 08:52:13;;;;;;;9.70;7.13;;;24.70;99.90;;;;;;5052594;28;20449;-81
2022/06/23 08:55:13;;;;;;;15.73;8.83;;;24.90;99.90;;;;;;5046311;28;20550;-80
2022/06/23 08:58:20;;;;;;;8.03;7.20;;;24.90;99.90;;;;;;5035913;28;20813;-81
2022/06/23 09:01:36;;;;;;;12.27;8.63;;;25.10;99.90;;;;;;5044856;28;20441;-82
2022/06/23 09:04:46;;;;;;;9.50;8.40;;;25.20;99.90;;;;;;5040713;28;20434;-82
2022/06/23 09:08:02;;;;;;;8.80;7.17;;;25.30;99.90;;;;;;5050845;28;20429;-82
2022/06/23 09:11:16;;;;;;;8.30;7.60;;;25.30;99.90;;;;;;5051760;28;20495;-79
2022/06/23 09:14:36;;;;;;;7.40;6.83;;;25.30;99.90;;;;;;5044474;28;20731;-81
2022/06/23 09:17:40;;;;;;;8.90;8.00;;;25.60;99.90;;;;;;5053785;28;20557;-81
2022/06/23 09:20:44;;;;;;;9.53;8.23;;;25.80;99.90;;;;;;5056711;28;20451;-79
2022/06/23 09:23:54;;;;;;;8.40;7.60;;;25.70;99.90;;;;;;5052072;28;20519;-80
2022/06/23 09:26:45;;;;;;;8.07;6.63;;;25.80;99.90;;;;;;5013024;28;20466;-79
2022/06/23 09:29:56;;;;;;;8.47;7.30;;;26.00;99.90;;;;;;5012200;28;20513;-79
2022/06/23 09:32:58;;;;;;;7.70;7.03;;;26.10;99.90;;;;;;5006591;28;20470;-80
2022/06/23 09:36:14;;;;;;;7.60;6.70;;;26.00;99.90;;;;;;4996863;28;20577;-80
2022/06/23 09:39:29;;;;;;;11.50;6.50;;;26.30;99.90;;;;;;4998354;28;20484;-80
2022/06/23 09:42:38;;;;;;;10.10;6.57;;;26.20;99.90;;;;;;5001400;28;20453;-80
2022/06/23 09:45:46;;;;;;;7.50;6.60;;;26.20;99.90;;;;;;4991393;28;20475;-82
2022/06/23 09:48:49;;;;;;;7.77;7.17;;;26.00;99.90;;;;;;5013128;28;20552;-80
2022/06/23 09:51:53;;;;;;;7.70;6.93;;;26.40;99.90;;;;;;5025095;28;20510;-81
2022/06/23 09:54:52;;;;;;;7.90;6.43;;;26.40;99.90;;;;;;5045258;28;20459;-81
2022/06/23 09:58:01;;;;;;;7.33;6.43;;;26.20;99.90;;;;;;5033630;28;20476;-80
2022/06/23 10:01:21;;;;;;;6.67;6.07;;;26.60;99.90;;;;;;5040931;28;20758;-81
2022/06/23 10:04:25;;;;;;;7.27;6.57;;;26.80;99.90;;;;;;5055015;28;20558;-82
2022/06/23 10:07:37;;;;;;;7.73;6.97;;;26.70;99.90;;;;;;5059853;28;20785;-82
2022/06/23 10:10:58;;;;;;;7.00;6.40;;;26.70;99.90;;;;;;5057886;28;20506;-80
2022/06/23 10:14:07;;;;;;;6.53;5.70;;;27.00;99.90;;;;;;5043888;28;20448;-81
2022/06/23 10:17:20;;;;;;;7.20;5.93;;;27.10;99.90;;;;;;5038408;28;20437;-80
2022/06/23 10:20:39;;;;;;;7.03;6.30;;;27.50;99.90;;;;;;5050892;28;20873;-82
2022/06/23 10:23:48;;;;;;;7.73;6.17;;;27.40;99.90;;;;;;5052988;28;20433;-82
2022/06/23 10:26:58;;;;;;;9.53;5.90;;;27.40;99.90;;;;;;5039871;28;20868;-83
2022/06/23 10:30:03;;;;;;;9.93;6.47;;;27.60;99.90;;;;;;5051558;28;20909;-82
2022/06/23 10:33:03;;;;;;;6.50;5.90;;;27.60;99.90;;;;;;5045675;28;20862;-82
2022/06/23 10:36:06;;;;;;;5.73;5.23;;;27.50;99.90;;;;;;5054547;28;21045;-82
2022/06/23 10:39:19;;;;;;;6.53;5.93;;;27.60;99.90;;;;;;5057842;28;20432;-82
2022/06/23 10:42:27;;;;;;;6.63;6.03;;;27.90;99.90;;;;;;5050863;28;20426;-82
2022/06/23 10:45:35;;;;;;;7.70;5.07;;;28.10;99.90;;;;;;5030949;28;20953;-81
2022/06/23 10:48:48;;;;;;;6.30;5.70;;;28.20;99.90;;;;;;5058610;28;20420;-82
2022/06/23 10:51:58;;;;;;;4.80;4.50;;;27.90;99.90;;;;;;5056248;28;20464;-82
2022/06/23 10:55:10;;;;;;;6.83;5.90;;;27.90;99.90;;;;;;5057708;28;20474;-82
2022/06/23 10:58:20;;;;;;;10.70;5.80;;;28.10;99.90;;;;;;5043861;28;20595;-82
2022/06/23 11:01:33;;;;;;;5.77;5.27;;;28.10;99.90;;;;;;5051098;28;20444;-82
2022/06/23 11:04:34;;;;;;;6.10;4.97;;;28.30;99.90;;;;;;5051131;28;21035;-81
2022/06/23 11:07:54;;;;;;;7.87;7.00;;;28.30;99.90;;;;;;5034604;28;20553;-84
2022/06/23 11:11:08;;;;;;;5.87;5.47;;;28.40;99.90;;;;;;5035630;28;20488;-84
2022/06/23 11:14:09;;;;;;;11.97;5.97;;;28.50;99.90;;;;;;5024757;28;20802;-82
2022/06/23 11:17:18;;;;;;;6.17;5.57;;;28.70;99.90;;;;;;5021023;28;20538;-81
2022/06/23 11:20:27;;;;;;;6.90;5.77;;;28.80;99.90;;;;;;5033288;28;20429;-83
2022/06/23 11:23:34;;;;;;;7.63;5.67;;;28.70;99.90;;;;;;5029833;28;20429;-80
2022/06/23 11:26:37;;;;;;;6.33;5.73;;;28.70;99.90;;;;;;5021888;28;20457;-83
2022/06/23 11:29:53;;;;;;;8.70;5.60;;;28.60;99.90;;;;;;5020095;28;21018;-82
2022/06/23 11:32:52;;;;;;;8.70;5.67;;;28.70;99.90;;;;;;5036755;28;20540;-82
2022/06/23 11:36:03;;;;;;;5.67;5.00;;;29.00;99.90;;;;;;4984938;28;20515;-82
2022/06/23 11:39:14;;;;;;;8.90;5.60;;;29.50;99.90;;;;;;5002014;28;20431;-83
2022/06/23 11:42:16;;;;;;;6.60;5.70;;;29.50;99.90;;;;;;4957449;28;21094;-81
2022/06/23 11:45:19;;;;;;;6.23;5.70;;;29.30;99.90;;;;;;4989214;28;20443;-84
2022/06/23 11:48:32;;;;;;;8.30;5.30;;;29.00;99.90;;;;;;4996164;28;20967;-84
2022/06/23 11:51:41;;;;;;;6.80;4.67;;;28.80;99.90;;;;;;4995298;28;20588;-82
2022/06/23 11:54:58;;;;;;;5.83;5.30;;;29.10;99.90;;;;;;4980885;28;21208;-85
2022/06/23 11:58:11;;;;;;;5.20;4.70;;;28.80;99.90;;;;;;4965364;28;21003;-82
2022/06/23 12:01:13;;;;;;;5.20;4.70;;;29.70;99.90;;;;;;4957571;28;20476;-83
2022/06/23 12:04:25;;;;;;;8.33;7.63;;;29.40;99.90;;;;;;4965538;28;20484;-81
2022/06/23 12:07:44;;;;;;;5.00;4.60;;;29.30;99.90;;;;;;5006491;28;20516;-84
2022/06/23 12:10:34;;;;;;;5.20;4.80;;;29.60;99.90;;;;;;5023778;28;20491;-82
2022/06/23 12:13:21;;;;;;;4.37;3.97;;;29.60;99.90;;;;;;5011301;28;20585;-83
2022/06/23 12:16:06;;;;;;;4.93;4.33;;;29.60;99.90;;;;;;5015113;28;20430;-83
2022/06/23 12:19:04;;;;;;;4.50;4.20;;;29.90;99.90;;;;;;5025418;28;20437;-84
2022/06/23 12:22:06;;;;;;;4.40;3.90;;;29.90;99.90;;;;;;5012034;28;20705;-83
2022/06/23 12:25:26;;;;;;;5.80;4.93;;;30.30;99.50;;;;;;5030946;28;20487;-86
2022/06/23 12:28:21;;;;;;;4.57;4.17;;;30.20;98.40;;;;;;4985736;28;20471;-80
2022/06/23 12:31:31;;;;;;;6.27;4.67;;;30.00;98.50;;;;;;4993669;28;20475;-81
2022/06/23 12:34:38;;;;;;;3.83;3.58;;;30.40;97.90;;;;;;5010671;28;20428;-83
2022/06/23 12:37:44;;;;;;;5.35;4.22;;;30.80;97.90;;;;;;5004189;28;20267;-81
2022/06/23 12:40:38;;;;;;;4.00;3.60;;;31.00;95.70;;;;;;4992049;28;20199;-82
2022/06/23 12:43:45;;;;;;;4.65;3.92;;;31.20;94.70;;;;;;5008391;28;20203;-82
2022/06/23 12:46:57;;;;;;;5.07;3.85;;;30.90;94.30;;;;;;4999363;28;20203;-81
2022/06/23 12:50:16;;;;;;;5.30;4.60;;;30.70;93.70;;;;;;4990495;28;20232;-81
2022/06/23 12:53:19;;;;;;;5.40;4.30;;;30.50;95.00;;;;;;5007425;28;20196;-80
2022/06/23 12:56:18;;;;;;;4.82;4.05;;;30.60;94.50;;;;;;5011105;28;20219;-79
2022/06/23 12:59:11;;;;;;;4.88;3.95;;;31.10;92.80;;;;;;5047031;28;20226;-81
2022/06/23 13:02:16;;;;;;;10.77;4.90;;;31.40;92.90;;;;;;5063568;28;20215;-81
2022/06/23 13:05:17;;;;;;;5.57;4.30;;;31.10;91.40;;;;;;5065448;28;20186;-82
2022/06/23 13:08:08;;;;;;;4.30;3.90;;;30.80;92.40;;;;;;5052011;28;20191;-82
2022/06/23 13:10:59;;;;;;;4.05;3.75;;;30.90;91.80;;;;;;5060462;28;20255;-81
2022/06/23 13:13:49;;;;;;;7.03;4.40;;;31.60;91.30;;;;;;5065073;28;20189;-82
2022/06/23 13:16:42;;;;;;;6.05;4.63;;;31.60;91.10;;;;;;5043596;28;20228;-81
2022/06/23 13:19:38;;;;;;;5.95;3.92;;;31.80;90.90;;;;;;5064827;28;20203;-80
2022/06/23 13:22:26;;;;;;;7.47;4.97;;;32.00;89.60;;;;;;5052225;28;20198;-82
2022/06/23 13:25:17;;;;;;;5.85;5.45;;;32.40;87.80;;;;;;5031692;28;20174;-82
2022/06/23 13:28:05;;;;;;;6.53;3.85;;;32.20;89.50;;;;;;5036549;28;20275;-83
2022/06/23 13:30:54;;;;;;;8.13;4.18;;;31.80;89.10;;;;;;5049074;28;20229;-82
2022/06/23 13:33:48;;;;;;;4.15;3.75;;;31.80;87.60;;;;;;5022703;28;20210;-84
2022/06/23 13:37:00;;;;;;;4.35;3.90;;;31.40;87.50;;;;;;5042687;28;20353;-81
2022/06/23 13:40:11;;;;;;;7.05;4.97;;;31.90;87.80;;;;;;5056040;28;20392;-83
2022/06/23 13:43:22;;;;;;;3.80;3.50;;;31.50;88.10;;;;;;5056001;28;20221;-82
2022/06/23 13:46:14;;;;;;;5.78;4.65;;;31.10;88.20;;;;;;5043109;28;20191;-81
2022/06/23 13:49:30;;;;;;;4.75;4.28;;;30.90;89.80;;;;;;5057974;28;20646;-82
2022/06/23 13:52:35;;;;;;;3.33;3.13;;;31.20;90.00;;;;;;5056054;28;20183;-83
2022/06/23 13:55:27;;;;;;;4.28;3.88;;;31.70;88.10;;;;;;5028614;28;20197;-81
2022/06/23 13:58:29;;;;;;;3.85;3.65;;;31.30;86.00;;;;;;5020898;28;21101;-80
2022/06/23 14:01:27;;;;;;;5.95;3.25;;;32.30;88.10;;;;;;5014007;28;20278;-81
2022/06/23 14:04:37;;;;;;;9.57;6.30;;;31.60;85.90;;;;;;4990427;28;20776;-82
2022/06/23 14:07:34;;;;;;;3.75;3.42;;;31.60;85.90;;;;;;4998554;28;20246;-83
2022/06/23 14:10:52;;;;;;;4.45;4.15;;;31.10;87.90;;;;;;4993681;28;20205;-79
2022/06/23 14:13:52;;;;;;;5.18;3.63;;;31.90;87.00;;;;;;4981957;28;20678;-83
2022/06/23 14:17:02;;;;;;;3.38;3.13;;;31.70;87.30;;;;;;4996684;28;20231;-82
2022/06/23 14:20:25;;;;;;;3.72;3.42;;;32.00;85.60;;;;;;4997932;28;20295;-82
2022/06/23 14:23:35;;;;;;;3.58;3.35;;;32.20;84.90;;;;;;4981390;28;20563;-82
2022/06/23 14:26:28;;;;;;;9.98;3.65;;;32.00;84.00;;;;;;5000882;28;20195;-82
2022/06/23 14:29:19;;;;;;;4.35;3.08;;;32.20;83.30;;;;;;4992424;28;20189;-82
2022/06/23 14:32:14;;;;;;;4.75;3.67;;;32.30;80.50;;;;;;5004223;28;20247;-82
2022/06/23 14:35:14;;;;;;;3.20;3.00;;;32.10;81.00;;;;;;5004564;28;20209;-82
2022/06/23 14:38:13;;;;;;;8.18;4.50;;;32.20;79.10;;;;;;5034810;28;20189;-81
2022/06/23 14:41:34;;;;;;;3.75;3.33;;;32.70;81.10;;;;;;5052881;28;20252;-83
2022/06/23 14:44:43;;;;;;;4.60;2.80;;;32.70;80.70;;;;;;5057560;28;20237;-83
2022/06/23 14:47:52;;;;;;;4.30;3.17;;;32.50;79.60;;;;;;5044916;28;20182;-82
2022/06/23 14:50:55;;;;;;;5.32;3.53;;;32.70;79.30;;;;;;5033581;28;20336;-83
2022/06/23 14:53:51;;;;;;;3.22;3.00;;;32.40;80.30;;;;;;5039219;28;20531;-84
2022/06/23 14:57:02;;;;;;;3.65;3.17;;;32.00;79.00;;;;;;5056141;28;20242;-83
2022/06/23 15:00:08;;;;;;;4.78;3.40;;;31.50;78.80;;;;;;5058167;28;20614;-83
2022/06/23 15:03:03;;;;;;;5.18;2.70;;;31.60;79.70;;;;;;5042706;28;20225;-83
2022/06/23 15:05:59;;;;;;;2.80;2.60;;;31.80;78.60;;;;;;5049419;28;20530;-83
2022/06/23 15:08:56;;;;;;;4.32;2.83;;;32.50;80.90;;;;;;5041228;28;20167;-82
2022/06/23 15:11:52;;;;;;;6.13;2.60;;;32.20;78.30;;;;;;5040539;28;20190;-82
2022/06/23 15:14:47;;;;;;;3.78;3.13;;;32.40;77.70;;;;;;5040490;28;20179;-80
2022/06/23 15:17:48;;;;;;;3.00;2.80;;;32.30;77.50;;;;;;5053749;28;20190;-82
2022/06/23 15:20:42;;;;;;;3.30;2.95;;;32.40;77.20;;;;;;5060761;28;20265;-83
2022/06/23 15:23:40;;;;;;;2.75;2.55;;;31.70;79.10;;;;;;5059557;28;20170;-83
2022/06/23 15:26:29;;;;;;;2.70;2.50;;;32.00;77.50;;;;;;5063707;28;20214;-83
2022/06/23 15:29:25;;;;;;;5.18;3.08;;;32.20;79.50;;;;;;5061374;28;20196;-82